createdAt,value
2023-01-28T08:22:11.744Z,-1.45
2023-01-28T08:23:19.442Z,-1.22
2023-01-28T08:24:22.930Z,-1.43
2023-01-28T08:25:27.452Z,-1.33
2023-01-28T08:26:30.512Z,-1.21
2023-01-28T08:27:33.811Z,-1.23
2023-01-28T08:28:37.115Z,-1.29
2023-01-28T08:29:39.994Z,-1.53
2023-01-28T08:30:44.898Z,-1.55
2023-01-28T08:31:49.899Z,-1.37
2023-01-28T08:32:57.417Z,-1.12
2023-01-28T08:34:02.334Z,-1.22
2023-01-28T08:35:06.606Z,-1.53
2023-01-28T08:36:12.091Z,-1.48
2023-01-28T08:37:17.081Z,-1.44
2023-01-28T08:38:22.216Z,-1.11
2023-01-28T08:39:25.483Z,-0.96
2023-01-28T08:40:29.763Z,-0.83
2023-01-28T08:41:33.058Z,-0.83
2023-01-28T08:42:35.327Z,-0.78
2023-01-28T08:43:40.612Z,-0.68
2023-01-28T08:44:45.983Z,-0.74
2023-01-28T08:45:49.268Z,-0.59
2023-01-28T08:46:51.870Z,-0.80
2023-01-28T08:48:01.417Z,-1.07
2023-01-28T08:49:05.122Z,-1.24
2023-01-28T08:50:08.942Z,-1.20
2023-01-28T08:51:12.375Z,-0.87
2023-01-28T08:52:15.520Z,-0.71
2023-01-28T08:53:20.246Z,-0.67
2023-01-28T08:54:24.543Z,-0.73
2023-01-28T08:55:28.136Z,-0.77
2023-01-28T08:56:31.421Z,-0.79
2023-01-28T08:57:34.833Z,-1.06
2023-01-28T08:58:37.692Z,-1.23
2023-01-28T08:59:41.948Z,-1.04
2023-01-28T09:00:45.753Z,-1.13
2023-01-28T09:01:48.042Z,-1.00
2023-01-28T09:02:54.748Z,-0.83
2023-01-28T09:03:58.077Z,-0.55
2023-01-28T09:05:01.450Z,-0.63
2023-01-28T09:06:05.264Z,-0.78
2023-01-28T09:07:08.559Z,-0.73
2023-01-28T09:08:15.197Z,-0.69
2023-01-28T09:09:18.521Z,-0.66
2023-01-28T09:10:22.956Z,-0.67
2023-01-28T09:11:25.518Z,-0.69
2023-01-28T09:12:28.903Z,-0.65
2023-01-28T09:13:32.135Z,-0.82
2023-01-28T09:14:34.411Z,-0.95
2023-01-28T09:15:37.446Z,-0.73
2023-01-28T09:16:40.951Z,-0.46
2023-01-28T09:17:43.294Z,-0.27
2023-01-28T09:18:48.466Z,-0.25
2023-01-28T09:19:51.663Z,-0.62
2023-01-28T09:20:54.019Z,-0.36
2023-01-28T09:21:57.245Z,-0.09
2023-01-28T09:23:01.622Z,-0.30
2023-01-28T09:24:04.602Z,-0.37
2023-01-28T09:25:08.992Z,-0.56
2023-01-28T09:26:12.916Z,-0.38
2023-01-28T09:27:17.150Z,-0.36
2023-01-28T09:28:19.645Z,-0.02
2023-01-28T09:29:23.416Z,-0.19
2023-01-28T09:30:27.767Z,-0.17
2023-01-28T09:31:31.952Z,-0.08
2023-01-28T09:32:35.509Z,-0.30
2023-01-28T09:33:41.698Z,-0.35
2023-01-28T09:34:44.294Z,-0.16
2023-01-28T09:35:48.949Z,-0.10
2023-01-28T09:36:53.401Z,0.13
2023-01-28T09:38:00.652Z,0.31
2023-01-28T09:39:04.469Z,0.15
2023-01-28T09:40:09.156Z,0.28
2023-01-28T09:41:16.396Z,0.32
2023-01-28T09:42:41.418Z,0.39
2023-01-28T09:44:02.685Z,0.40
2023-01-28T09:45:08.601Z,0.46
2023-01-28T09:46:12.718Z,0.45
2023-01-28T09:47:18.002Z,0.41
2023-01-28T09:48:23.100Z,0.32
2023-01-28T09:49:37.635Z,0.34
2023-01-28T09:50:43.713Z,0.43
2023-01-28T09:51:48.279Z,0.76
2023-01-28T09:52:55.479Z,0.64
2023-01-28T09:54:01.906Z,0.49
2023-01-28T09:55:10.636Z,0.62
2023-01-28T09:56:16.942Z,1.14
2023-01-28T09:57:22.237Z,1.41
2023-01-28T09:58:24.483Z,1.75
2023-01-28T09:59:27.831Z,1.85
2023-01-28T10:00:35.801Z,1.68
2023-01-28T10:01:54.004Z,1.38
2023-01-28T10:03:01.684Z,1.21
2023-01-28T10:04:25.359Z,1.03
2023-01-28T10:05:33.668Z,1.03
2023-01-28T10:06:47.305Z,0.80
2023-01-28T10:07:52.469Z,0.65
2023-01-28T10:08:56.631Z,0.26
2023-01-28T10:10:04.985Z,0.29
2023-01-28T10:11:09.787Z,0.04
2023-01-28T10:12:16.831Z,0.24
2023-01-28T10:13:25.047Z,0.63
2023-01-28T10:14:34.915Z,0.56
2023-01-28T10:15:57.033Z,0.57
2023-01-28T10:17:08.926Z,0.59
2023-01-28T10:18:17.653Z,0.41
2023-01-28T10:19:20.801Z,0.55
2023-01-28T10:20:26.927Z,0.44
2023-01-28T10:21:45.349Z,0.43
2023-01-28T10:22:51.379Z,0.47
2023-01-28T10:24:00.371Z,0.44
2023-01-28T10:25:09.231Z,0.64
2023-01-28T10:26:15.781Z,0.76
2023-01-28T10:27:27.011Z,0.70
2023-01-28T10:28:31.288Z,0.80
2023-01-28T10:29:35.813Z,0.79
2023-01-28T10:30:41.022Z,0.92
2023-01-28T10:31:55.204Z,0.94
2023-01-28T10:33:06.452Z,0.88
2023-01-28T10:34:11.564Z,0.96
2023-01-28T10:35:18.004Z,0.80
2023-01-28T10:36:21.372Z,0.90
2023-01-28T10:37:25.633Z,1.25
2023-01-28T10:38:31.027Z,1.28
2023-01-28T10:39:35.959Z,1.30
2023-01-28T10:40:41.239Z,1.21
2023-01-28T10:41:56.769Z,1.38
2023-01-28T10:42:51.906Z,1.30
2023-01-28T10:43:58.055Z,1.45
2023-01-28T10:45:04.886Z,1.28
2023-01-28T10:46:18.209Z,1.45
2023-01-28T10:47:23.891Z,1.61
2023-01-28T10:48:29.068Z,1.53
2023-01-28T10:49:41.330Z,1.57
2023-01-28T10:50:51.733Z,1.48
2023-01-28T12:33:57.408Z,1.51
2023-01-28T12:35:03.493Z,1.64
2023-01-28T12:36:24.071Z,1.60
2023-01-28T12:37:33.740Z,1.79
2023-01-28T12:38:50.824Z,1.65
2023-01-28T12:39:56.098Z,1.59
2023-01-28T12:41:03.996Z,1.59
2023-01-28T12:42:14.910Z,1.59
2023-01-28T12:43:29.278Z,1.66
2023-01-28T12:44:35.494Z,1.64
2023-01-28T12:45:42.582Z,1.58
2023-01-28T12:46:48.973Z,1.60
2023-01-28T12:47:53.991Z,1.89
2023-01-28T12:49:09.143Z,1.94
2023-01-28T12:50:20.481Z,1.65
2023-01-28T12:51:32.145Z,1.52
2023-01-28T12:52:40.771Z,1.46
2023-01-28T12:53:48.334Z,1.56
2023-01-28T12:55:09.193Z,1.82
2023-01-28T12:56:16.028Z,1.70
2023-01-28T12:57:26.949Z,1.68
2023-01-28T12:58:32.121Z,1.72
2023-01-28T12:59:37.300Z,1.83
2023-01-28T13:00:42.182Z,1.54
2023-01-28T13:01:48.234Z,1.55
2023-01-28T13:02:59.206Z,1.68
2023-01-28T13:04:04.914Z,1.83
2023-01-28T13:05:16.066Z,1.74
2023-01-28T13:06:24.564Z,1.75
2023-01-28T13:07:44.053Z,1.67
2023-01-28T13:08:49.120Z,1.66
2023-01-28T13:09:54.399Z,1.80
2023-01-28T13:10:59.790Z,1.65
2023-01-28T13:12:04.748Z,1.45
2023-01-28T13:13:10.402Z,1.46
2023-01-28T13:14:14.854Z,1.50
2023-01-28T13:15:19.220Z,1.59
2023-01-28T13:16:35.894Z,1.51
2023-01-28T13:17:27.917Z,1.70
2023-01-28T13:18:37.103Z,1.75
2023-01-28T13:19:53.721Z,1.76
2023-01-28T13:20:57.547Z,1.72
2023-01-28T13:22:01.663Z,1.50
2023-01-28T13:23:08.184Z,1.39
2023-01-28T13:24:14.512Z,1.47
2023-01-28T13:25:22.420Z,1.58
2023-01-28T13:26:31.681Z,1.68
2023-01-28T13:27:36.234Z,1.76
2023-01-28T13:28:41.317Z,1.83
2023-01-28T13:29:47.630Z,1.82
2023-01-28T13:30:50.919Z,1.92
2023-01-28T13:31:55.693Z,1.62
2023-01-28T13:33:00.737Z,1.61
2023-01-28T13:34:09.159Z,1.61
2023-01-28T13:35:17.310Z,1.53
2023-01-28T13:36:22.427Z,1.72
2023-01-28T13:37:27.617Z,1.57
2023-01-28T13:38:31.543Z,1.54
2023-01-28T13:39:36.090Z,1.64
2023-01-28T13:40:41.962Z,1.68
2023-01-28T13:41:47.016Z,1.71
2023-01-28T13:43:04.798Z,1.65
2023-01-28T13:44:17.883Z,1.67
2023-01-28T13:45:23.806Z,1.70
2023-01-28T13:46:28.648Z,1.78
2023-01-28T13:47:34.678Z,1.85
2023-01-28T13:48:44.659Z,1.63
2023-01-28T13:49:49.941Z,1.62
2023-01-28T13:50:53.765Z,1.61
2023-01-28T13:51:58.619Z,1.68
2023-01-28T13:53:06.504Z,1.29
2023-01-28T13:54:13.346Z,1.27
2023-01-28T13:55:33.484Z,1.33
2023-01-28T13:56:30.489Z,1.35
2023-01-28T13:57:51.237Z,1.41
2023-01-28T13:59:08.555Z,1.51
2023-01-28T14:00:14.355Z,1.55
2023-01-28T14:01:38.442Z,1.46
2023-01-28T14:03:00.615Z,1.26
2023-01-28T14:04:06.605Z,1.31
2023-01-28T14:05:13.006Z,1.36
2023-01-28T14:06:25.032Z,1.26
2023-01-28T14:07:42.518Z,1.32
2023-01-28T14:09:00.675Z,1.30
2023-01-28T14:10:13.603Z,1.31
2023-01-28T14:11:30.520Z,1.29
2023-01-28T14:12:35.084Z,1.31
2023-01-28T14:13:56.897Z,1.35
2023-01-28T14:15:20.011Z,1.32
2023-01-28T14:16:25.074Z,1.34
2023-01-28T14:17:50.626Z,1.30
2023-01-28T14:18:59.370Z,1.28
2023-01-28T14:20:15.242Z,1.25
2023-01-28T14:21:22.223Z,1.29
2023-01-28T14:22:25.738Z,1.41
2023-01-28T14:23:33.308Z,1.41
2023-01-28T14:24:40.493Z,1.31
2023-01-28T14:25:53.799Z,1.35
2023-01-28T14:26:58.440Z,1.33
2023-01-28T14:28:03.539Z,1.20
2023-01-28T14:29:10.373Z,1.15
2023-01-28T14:30:21.600Z,1.21
2023-01-28T14:31:37.422Z,1.20
2023-01-28T14:32:42.296Z,1.22
2023-01-28T14:33:46.630Z,1.14
2023-01-28T14:34:51.299Z,1.07
2023-01-28T14:35:54.417Z,1.03
2023-01-28T14:37:00.176Z,1.01
2023-01-28T14:38:05.987Z,1.09
2023-01-28T14:39:21.033Z,1.11
2023-01-28T14:40:26.053Z,1.09
2023-01-28T14:41:29.668Z,1.03
2023-01-28T14:42:34.131Z,1.00
2023-01-28T14:43:41.709Z,0.95
2023-01-28T14:44:45.926Z,0.93
2023-01-28T14:45:50.265Z,0.96
2023-01-28T14:46:56.219Z,0.95
2023-01-28T14:48:19.416Z,0.99
2023-01-28T14:49:31.591Z,0.93
2023-01-28T14:50:54.789Z,0.84
2023-01-28T14:52:14.845Z,0.82
2023-01-28T14:53:27.053Z,0.81
2023-01-28T14:54:38.357Z,0.82
2023-01-28T14:56:00.978Z,0.84
2023-01-28T14:57:05.932Z,0.78
2023-01-28T14:58:17.282Z,0.77
2023-01-28T14:59:28.616Z,0.77
2023-01-28T15:00:33.785Z,0.70
2023-01-28T15:01:39.908Z,0.65
2023-01-28T15:02:44.418Z,0.65
2023-01-28T15:03:48.634Z,0.67
2023-01-28T15:04:52.265Z,0.71
2023-01-28T15:06:08.451Z,0.72
2023-01-28T15:07:23.753Z,0.65
2023-01-28T15:08:28.194Z,0.63
2023-01-28T15:09:31.412Z,0.62
2023-01-28T15:10:37.615Z,0.65
2023-01-28T15:11:44.524Z,0.68
2023-01-28T15:12:55.285Z,0.65
2023-01-28T15:14:00.715Z,0.67
2023-01-28T15:15:15.052Z,0.67
2023-01-28T15:16:23.562Z,0.69
2023-01-28T15:17:28.311Z,0.72
2023-01-28T15:18:32.235Z,0.72
2023-01-28T15:19:37.446Z,0.68
2023-01-28T15:20:43.657Z,0.68
2023-01-28T15:21:47.959Z,0.67
2023-01-28T15:22:53.138Z,0.63
2023-01-28T15:23:57.824Z,0.57
2023-01-28T15:25:01.199Z,0.53
2023-01-28T15:26:08.142Z,0.48
2023-01-28T15:27:17.948Z,0.44
2023-01-28T15:28:23.324Z,0.48
2023-01-28T15:29:34.229Z,0.42
2023-01-28T15:30:37.230Z,0.46
2023-01-28T15:31:42.096Z,0.52
2023-01-28T15:32:45.371Z,0.46
2023-01-28T15:34:05.588Z,0.41
2023-01-28T15:35:12.739Z,0.45
2023-01-28T15:36:16.044Z,0.37
2023-01-28T15:37:20.425Z,0.35
2023-01-28T15:38:23.805Z,0.37
2023-01-28T15:39:30.696Z,0.33
2023-01-28T15:40:35.915Z,0.28
2023-01-28T15:41:41.024Z,0.33
2023-01-28T15:42:45.744Z,0.31
2023-01-28T15:43:51.129Z,0.34
2023-01-28T15:44:56.584Z,0.35
2023-01-28T15:46:01.273Z,0.34
2023-01-28T15:47:34.471Z,0.32
2023-01-28T15:48:40.549Z,0.33
2023-01-28T15:49:45.977Z,0.34
2023-01-28T15:50:49.389Z,0.35
2023-01-28T15:51:53.992Z,0.32
2023-01-28T15:52:58.127Z,0.28
2023-01-28T15:54:04.238Z,0.30
2023-01-28T15:55:09.412Z,0.29
2023-01-28T15:56:14.556Z,0.30
2023-01-28T15:57:21.974Z,0.24
2023-01-28T15:58:30.435Z,0.16
2023-01-28T15:59:35.783Z,0.24
2023-01-28T16:00:39.443Z,0.24
2023-01-28T16:01:43.555Z,0.22
2023-01-28T16:02:47.327Z,0.10
2023-01-28T16:04:06.191Z,0.17
2023-01-28T16:05:11.993Z,0.22
2023-01-28T16:06:19.751Z,0.20
2023-01-28T16:07:23.487Z,0.13
2023-01-28T16:08:30.988Z,0.10
2023-01-28T16:09:35.407Z,0.11
2023-01-28T16:10:38.705Z,0.08
2023-01-28T16:11:43.753Z,0.11
2023-01-28T16:12:53.137Z,0.06
2023-01-28T16:14:00.803Z,0.08
2023-01-28T16:15:07.422Z,0.12
2023-01-28T16:16:11.924Z,0.05
2023-01-28T16:17:19.880Z,0.06
2023-01-28T16:18:40.238Z,0.08
2023-01-28T16:19:46.021Z,0.06
2023-01-28T16:20:50.483Z,0.15
2023-01-28T16:21:54.175Z,0.13
2023-01-28T16:22:58.295Z,0.16
2023-01-28T16:24:08.285Z,0.18
2023-01-28T16:25:32.893Z,0.18
2023-01-28T16:26:36.053Z,0.17
2023-01-28T16:27:42.594Z,0.14
2023-01-28T16:28:46.224Z,0.06
2023-01-28T16:29:49.833Z,0.15
2023-01-28T16:30:53.385Z,0.13
2023-01-28T16:31:58.720Z,0.08
2023-01-28T16:33:01.905Z,0.13
2023-01-28T16:34:05.525Z,0.16
2023-01-28T16:35:18.188Z,0.19
2023-01-28T16:36:27.899Z,0.14
2023-01-28T16:37:31.182Z,0.15
2023-01-28T16:38:35.324Z,0.19
2023-01-28T16:39:38.445Z,0.20
2023-01-28T16:40:44.935Z,0.16
2023-01-28T16:41:50.932Z,0.13
2023-01-28T16:42:56.159Z,0.17
2023-01-28T16:44:02.774Z,0.19
2023-01-28T16:45:06.788Z,0.17
2023-01-28T16:46:10.718Z,0.16
2023-01-28T16:47:15.138Z,0.15
2023-01-28T16:48:18.272Z,0.08
2023-01-28T16:49:20.709Z,0.10
2023-01-28T16:50:23.895Z,0.15
2023-01-28T16:51:27.717Z,0.20
2023-01-28T16:52:31.943Z,0.23
2023-01-28T16:53:35.192Z,0.24
2023-01-28T16:54:41.667Z,0.16
2023-01-28T16:55:45.185Z,0.17
2023-01-28T16:56:47.678Z,0.16
2023-01-28T16:57:55.014Z,0.19
2023-01-28T16:58:58.447Z,0.16
2023-01-28T17:00:01.559Z,0.05
2023-01-28T17:01:05.732Z,0.06
2023-01-28T17:02:13.839Z,0.06
2023-01-28T17:03:18.984Z,-0.03
2023-01-28T17:04:21.787Z,-0.06
2023-01-28T17:05:28.323Z,-0.06
2023-01-28T17:06:31.836Z,-0.12
2023-01-28T17:07:35.997Z,-0.04
2023-01-28T17:08:39.881Z,-0.05
2023-01-28T17:09:43.595Z,-0.02
2023-01-28T17:10:48.145Z,-0.05
2023-01-28T17:11:53.843Z,-0.12
2023-01-28T17:12:59.542Z,-0.19
2023-01-28T17:14:02.834Z,-0.14
2023-01-28T17:15:06.866Z,-0.21
2023-01-28T17:16:10.409Z,-0.16
2023-01-28T17:17:14.620Z,-0.20
2023-01-28T17:18:19.847Z,-0.08
2023-01-28T17:19:23.398Z,-0.13
2023-01-28T17:20:27.064Z,-0.17
2023-01-28T17:21:29.263Z,-0.14
2023-01-28T17:22:32.662Z,-0.15
2023-01-28T17:23:36.053Z,-0.20
2023-01-28T17:24:38.756Z,-0.24
2023-01-28T17:25:45.779Z,-0.19
2023-01-28T17:26:52.001Z,-0.24
2023-01-28T17:27:55.184Z,-0.25
2023-01-28T17:28:58.707Z,-0.32
2023-01-28T17:30:02.207Z,-0.31
2023-01-28T17:31:09.368Z,-0.19
2023-01-28T17:32:12.813Z,-0.19
2023-01-28T17:33:16.360Z,-0.20
2023-01-28T17:34:21.025Z,-0.27
2023-01-28T17:35:24.227Z,-0.18
2023-01-28T17:36:29.085Z,-0.21
2023-01-28T17:37:31.861Z,-0.22
2023-01-28T17:38:35.571Z,-0.20
2023-01-28T17:39:39.286Z,-0.25
2023-01-28T17:40:42.787Z,-0.22
2023-01-28T17:41:48.685Z,-0.27
2023-01-28T17:42:53.221Z,-0.24
2023-01-28T17:43:58.632Z,-0.23
2023-01-28T17:45:03.690Z,-0.22
2023-01-28T17:46:11.994Z,-0.22
2023-01-28T17:47:15.515Z,-0.22
2023-01-28T17:48:18.915Z,-0.24
2023-01-28T17:49:23.976Z,-0.33
2023-01-28T17:50:28.523Z,-0.27
2023-01-28T17:51:33.065Z,-0.26
2023-01-28T17:52:36.490Z,-0.38
2023-01-28T17:53:39.319Z,-0.32
2023-01-28T17:54:42.667Z,-0.33
2023-01-28T17:55:46.187Z,-0.37
2023-01-28T17:56:50.928Z,-0.32
2023-01-28T17:57:56.513Z,-0.38
2023-01-28T17:59:04.312Z,-0.37
2023-01-28T18:00:10.246Z,-0.45
2023-01-28T18:01:16.855Z,-0.40
2023-01-28T18:02:20.972Z,-0.43
2023-01-28T18:03:24.388Z,-0.40
2023-01-28T18:04:28.859Z,-0.48
2023-01-28T18:05:32.333Z,-0.40
2023-01-28T18:06:36.247Z,-0.36
2023-01-28T18:07:39.866Z,-0.42
2023-01-28T18:08:44.776Z,-0.40
2023-01-28T18:09:49.082Z,-0.43
2023-01-28T18:10:52.573Z,-0.46
2023-01-28T18:11:56.288Z,-0.50
2023-01-28T18:13:02.550Z,-0.60
2023-01-28T18:14:06.953Z,-0.57
2023-01-28T18:15:11.295Z,-0.49
2023-01-28T18:16:16.785Z,-0.49
2023-01-28T18:17:20.395Z,-0.46
2023-01-28T18:18:22.643Z,-0.44
2023-01-28T18:19:26.393Z,-0.46
2023-01-28T18:20:30.984Z,-0.43
2023-01-28T18:21:51.844Z,-0.43
2023-01-28T18:22:41.686Z,-0.45
2023-01-28T18:23:45.185Z,-0.40
2023-01-28T18:24:49.005Z,-0.38
2023-01-28T18:25:53.656Z,-0.42
2023-01-28T18:27:02.498Z,-0.40
2023-01-28T18:28:06.352Z,-0.45
2023-01-28T18:29:09.398Z,-0.45
2023-01-28T18:30:14.514Z,-0.46
2023-01-28T18:31:21.252Z,-0.44
2023-01-28T18:32:25.623Z,-0.50
2023-01-28T18:33:29.996Z,-0.49
2023-01-28T18:34:33.395Z,-0.51
2023-01-28T18:35:38.751Z,-0.52
2023-01-28T18:36:42.073Z,-0.55
2023-01-28T18:37:47.373Z,-0.59
2023-01-28T18:38:50.863Z,-0.54
2023-01-28T18:39:54.776Z,-0.53
2023-01-28T18:40:57.924Z,-0.51
2023-01-28T18:42:01.797Z,-0.58
2023-01-28T18:43:05.212Z,-0.59
2023-01-28T18:44:08.588Z,-0.59
2023-01-28T18:45:17.989Z,-0.59
2023-01-28T18:46:21.559Z,-0.56
2023-01-28T18:47:25.138Z,-0.58
2023-01-28T18:48:28.559Z,-0.58
2023-01-28T18:49:32.089Z,-0.56
2023-01-28T18:50:35.191Z,-0.58
2023-01-28T18:51:38.357Z,-0.69
2023-01-28T18:52:41.751Z,-0.73
2023-01-28T18:53:45.900Z,-0.63
2023-01-28T18:54:49.180Z,-0.74
2023-01-28T18:55:53.124Z,-0.74
2023-01-28T18:56:56.085Z,-0.77
2023-01-28T18:58:02.490Z,-0.72
2023-01-28T18:59:06.635Z,-0.78
2023-01-28T19:00:09.946Z,-0.73
2023-01-28T19:01:12.636Z,-0.77
2023-01-28T19:02:19.835Z,-0.69
2023-01-28T19:03:23.279Z,-0.62
2023-01-28T19:04:25.628Z,-0.64
2023-01-28T19:05:29.142Z,-0.67
2023-01-28T19:06:32.546Z,-0.69
2023-01-28T19:07:34.784Z,-0.65
2023-01-28T19:08:38.807Z,-0.66
2023-01-28T19:09:42.049Z,-0.70
2023-01-28T19:10:45.534Z,-0.74
2023-01-28T19:11:52.560Z,-0.77
2023-01-28T19:12:57.015Z,-0.78
2023-01-28T19:14:02.860Z,-0.78
2023-01-28T19:15:09.806Z,-0.78
2023-01-28T19:16:17.185Z,-0.77
2023-01-28T19:17:20.844Z,-0.78
2023-01-28T19:18:24.150Z,-0.74
2023-01-28T19:19:28.517Z,-0.67
2023-01-28T19:20:32.647Z,-0.67
2023-01-28T19:21:35.345Z,-0.66
2023-01-28T19:22:40.334Z,-0.65
2023-01-28T19:23:49.827Z,-0.72
2023-01-28T19:24:49.461Z,-0.78
2023-01-28T19:25:52.683Z,-0.82
2023-01-28T19:26:55.011Z,-0.78
2023-01-28T19:27:58.932Z,-0.82
2023-01-28T19:29:02.457Z,-0.79
2023-01-28T19:30:06.668Z,-0.77
2023-01-28T19:31:10.763Z,-0.73
2023-01-28T19:32:16.205Z,-0.64
2023-01-28T19:33:22.794Z,-0.62
2023-01-28T19:34:26.229Z,-0.65
2023-01-28T19:35:28.377Z,-0.67
2023-01-28T19:36:33.508Z,-0.68
2023-01-28T19:37:38.632Z,-0.75
2023-01-28T19:38:42.472Z,-0.83
2023-01-28T19:39:48.246Z,-0.75
2023-01-28T19:40:52.563Z,-0.79
2023-01-28T19:41:56.222Z,-0.78
2023-01-28T19:42:59.806Z,-0.75
2023-01-28T19:44:06.471Z,-0.69
2023-01-28T19:45:11.000Z,-0.68
2023-01-28T19:46:16.612Z,-0.79
2023-01-28T19:47:20.751Z,-0.80
2023-01-28T19:48:23.496Z,-0.81
2023-01-28T19:49:26.885Z,-0.81
2023-01-28T19:50:29.338Z,-0.92
2023-01-28T19:51:32.743Z,-0.94
2023-01-28T19:52:35.830Z,-0.96
2023-01-28T19:53:40.120Z,-1.05
2023-01-28T19:54:49.546Z,-0.93
2023-01-28T19:55:54.086Z,-0.92
2023-01-28T19:56:57.510Z,-0.96
2023-01-28T19:58:02.931Z,-0.93
2023-01-28T19:59:05.325Z,-0.84
2023-01-28T20:00:09.765Z,-0.88
2023-01-28T20:01:13.660Z,-0.90
2023-01-28T20:02:17.754Z,-0.92
2023-01-28T20:03:20.835Z,-0.92
2023-01-28T20:04:24.034Z,-0.87
2023-01-28T20:05:27.929Z,-0.91
2023-01-28T20:06:36.232Z,-1.01
2023-01-28T20:07:39.846Z,-1.00
2023-01-28T20:08:45.506Z,-0.95
2023-01-28T20:09:48.862Z,-0.87
2023-01-28T20:10:52.253Z,-0.92
2023-01-28T20:11:55.526Z,-1.01
2023-01-28T20:12:59.350Z,-1.04
2023-01-28T20:14:03.076Z,-1.12
2023-01-28T20:15:07.204Z,-1.06
2023-01-28T20:16:18.738Z,-1.14
2023-01-28T20:17:22.297Z,-1.06
2023-01-28T20:18:27.197Z,-1.08
2023-01-28T20:19:30.935Z,-1.04
2023-01-28T20:20:34.440Z,-0.92
2023-01-28T20:21:38.859Z,-0.96
2023-01-28T20:22:43.258Z,-1.09
2023-01-28T20:23:50.166Z,-1.01
2023-01-28T20:24:54.523Z,-1.04
2023-01-28T20:26:03.140Z,-1.01
2023-01-28T20:27:05.386Z,-1.06
2023-01-28T20:28:08.471Z,-1.13
2023-01-28T20:29:13.127Z,-1.07
2023-01-28T20:30:16.959Z,-1.08
2023-01-28T20:31:24.130Z,-1.13
2023-01-28T20:32:26.896Z,-1.11
2023-01-28T20:33:31.540Z,-1.14
2023-01-28T20:34:35.035Z,-1.14
2023-01-28T20:35:37.727Z,-1.22
2023-01-28T20:36:40.494Z,-1.28
2023-01-28T20:37:47.559Z,-1.24
2023-01-28T20:38:53.171Z,-1.28
2023-01-28T20:39:56.424Z,-1.28
2023-01-28T20:40:58.980Z,-1.28
2023-01-28T20:42:03.027Z,-1.18
2023-01-28T20:43:07.579Z,-1.23
2023-01-28T20:44:09.921Z,-1.33
2023-01-28T20:45:13.411Z,-1.30
2023-01-28T20:46:18.839Z,-1.31
2023-01-28T20:47:21.483Z,-1.36
2023-01-28T20:48:23.953Z,-1.29
2023-01-28T20:49:28.277Z,-1.25
2023-01-28T20:50:32.666Z,-1.24
2023-01-28T20:51:35.841Z,-1.14
2023-01-28T20:52:39.404Z,-1.23
2023-01-28T20:53:43.366Z,-1.24
2023-01-28T20:54:47.175Z,-1.19
2023-01-28T20:55:57.604Z,-1.32
2023-01-28T20:57:00.766Z,-1.36
2023-01-28T20:58:04.584Z,-1.42
2023-01-28T20:59:10.054Z,-1.43
2023-01-28T21:00:14.313Z,-1.36
2023-01-28T21:01:22.271Z,-1.28
2023-01-28T21:02:27.309Z,-1.37
2023-01-28T21:03:32.170Z,-1.27
2023-01-28T21:04:36.685Z,-1.24
2023-01-28T21:05:40.711Z,-1.29
2023-01-28T21:06:44.103Z,-1.34
2023-01-28T21:07:47.513Z,-1.32
2023-01-28T21:08:58.738Z,-1.29
2023-01-28T21:10:02.602Z,-1.33
2023-01-28T21:11:07.018Z,-1.34
2023-01-28T21:12:09.150Z,-1.28
2023-01-28T21:13:12.895Z,-1.29
2023-01-28T21:14:17.019Z,-1.32
2023-01-28T21:15:21.014Z,-1.27
2023-01-28T21:16:25.674Z,-1.37
2023-01-28T21:17:29.086Z,-1.39
2023-01-28T21:18:32.684Z,-1.47
2023-01-28T21:19:35.677Z,-1.48
2023-01-28T21:20:39.013Z,-1.44
2023-01-28T21:21:42.469Z,-1.45
2023-01-28T21:22:47.758Z,-1.48
2023-01-28T21:23:54.981Z,-1.51
2023-01-28T21:24:57.381Z,-1.49
2023-01-28T21:26:06.403Z,-1.54
2023-01-28T21:27:10.040Z,-1.57
2023-01-28T21:28:14.468Z,-1.74
2023-01-28T21:29:20.280Z,-1.75
2023-01-28T21:30:23.677Z,-1.73
2023-01-28T21:31:27.193Z,-1.64
2023-01-28T21:32:31.564Z,-1.60
2023-01-28T21:33:35.969Z,-1.62
2023-01-28T21:34:41.144Z,-1.71
2023-01-28T21:35:43.836Z,-1.68
2023-01-28T21:36:48.479Z,-1.66
2023-01-28T21:37:51.781Z,-1.63
2023-01-28T21:38:58.603Z,-1.60
2023-01-28T21:40:04.606Z,-1.65
2023-01-28T21:41:09.092Z,-1.61
2023-01-28T21:42:13.816Z,-1.65
2023-01-28T21:43:17.334Z,-1.64
2023-01-28T21:44:22.102Z,-1.68
2023-01-28T21:45:26.859Z,-1.62
2023-01-28T21:46:31.768Z,-1.58
2023-01-28T21:47:36.153Z,-1.50
2023-01-28T21:48:39.661Z,-1.40
2023-01-28T21:49:43.366Z,-1.38
2023-01-28T21:51:04.625Z,-1.33
2023-01-28T21:52:07.960Z,-1.31
2023-01-28T21:53:14.424Z,-1.18
2023-01-28T21:54:19.023Z,-1.15
2023-01-28T21:55:22.196Z,-1.11
2023-01-28T21:56:25.712Z,-1.02
2023-01-28T21:57:28.591Z,-1.00
2023-01-28T21:58:49.962Z,-0.98
2023-01-28T21:59:54.506Z,-1.01
2023-01-28T22:00:58.993Z,-0.96
2023-01-28T22:02:06.632Z,-1.01
2023-01-28T22:03:09.625Z,-1.02
2023-01-28T22:04:12.713Z,-1.01
2023-01-28T22:05:18.394Z,-1.05
2023-01-28T22:06:21.803Z,-1.05
2023-01-28T22:07:25.935Z,-1.09
2023-01-28T22:08:28.608Z,-1.12
2023-01-28T22:09:31.716Z,-1.19
2023-01-28T22:10:35.737Z,-1.16
2023-01-28T22:11:39.219Z,-1.17
2023-01-28T22:12:42.373Z,-1.13
2023-01-28T22:13:47.948Z,-1.18
2023-01-28T22:14:51.515Z,-1.27
2023-01-28T22:15:54.698Z,-1.26
2023-01-28T22:16:57.109Z,-1.26
2023-01-28T22:18:00.386Z,-1.22
2023-01-28T22:19:03.970Z,-1.17
2023-01-28T22:20:08.903Z,-1.22
2023-01-28T22:21:11.812Z,-1.26
2023-01-28T22:22:15.848Z,-1.27
2023-01-28T22:23:18.620Z,-1.26
2023-01-28T22:24:24.516Z,-1.34
2023-01-28T22:25:27.738Z,-1.34
2023-01-28T22:26:34.165Z,-1.34
2023-01-28T22:27:39.306Z,-1.37
2023-01-28T22:28:42.500Z,-1.35
2023-01-28T22:29:45.797Z,-1.32
2023-01-28T22:30:49.134Z,-1.36
2023-01-28T22:31:53.457Z,-1.36
2023-01-28T22:33:00.613Z,-1.39
2023-01-28T22:34:04.516Z,-1.49
2023-01-28T22:35:07.810Z,-1.50
2023-01-28T22:36:15.845Z,-1.45
2023-01-28T22:37:19.201Z,-1.36
2023-01-28T22:38:24.346Z,-1.34
2023-01-28T22:39:27.813Z,-1.43
2023-01-28T22:40:34.955Z,-1.39
2023-01-28T22:41:39.609Z,-1.56
2023-01-28T22:42:43.520Z,-1.50
2023-01-28T22:43:47.445Z,-1.46
2023-01-28T22:44:50.751Z,-1.52
2023-01-28T22:45:56.975Z,-1.56
2023-01-28T22:47:00.393Z,-1.57
2023-01-28T22:48:03.773Z,-1.49
2023-01-28T22:49:06.901Z,-1.49
2023-01-28T22:50:11.084Z,-1.43
2023-01-28T22:51:15.534Z,-1.47
2023-01-28T22:52:19.140Z,-1.45
2023-01-28T22:53:23.701Z,-1.48
2023-01-28T22:54:26.059Z,-1.52
2023-01-28T22:55:29.236Z,-1.56
2023-01-28T22:56:31.718Z,-1.63
2023-01-28T22:57:35.096Z,-1.58
2023-01-28T22:58:39.556Z,-1.56
2023-01-28T22:59:59.240Z,-1.55
2023-01-28T23:00:49.177Z,-1.50
2023-01-28T23:01:52.777Z,-1.52
2023-01-28T23:02:56.034Z,-1.52
2023-01-28T23:03:59.499Z,-1.50
2023-01-28T23:05:02.694Z,-1.55
2023-01-28T23:06:05.435Z,-1.54
2023-01-28T23:07:10.845Z,-1.51
2023-01-28T23:08:15.296Z,-1.54
2023-01-28T23:09:18.784Z,-1.54
2023-01-28T23:10:22.060Z,-1.64
2023-01-28T23:11:25.999Z,-1.63
2023-01-28T23:12:29.831Z,-1.66
2023-01-28T23:13:35.831Z,-1.63
2023-01-28T23:14:58.756Z,-1.61
2023-01-28T23:16:19.490Z,-1.70
2023-01-28T23:17:44.752Z,-1.68
2023-01-28T23:19:08.458Z,-1.62
2023-01-28T23:20:29.648Z,-1.66
2023-01-28T23:21:51.326Z,-1.74
2023-01-28T23:23:12.285Z,-1.71
2023-01-28T23:24:22.708Z,-1.73
2023-01-28T23:25:25.130Z,-1.70
2023-01-28T23:26:30.971Z,-1.72
2023-01-28T23:27:34.972Z,-1.77
2023-01-28T23:28:38.048Z,-1.76
2023-01-28T23:29:42.402Z,-1.75
2023-01-28T23:30:46.121Z,-1.80
2023-01-28T23:31:49.547Z,-1.75
2023-01-28T23:32:54.900Z,-1.75
2023-01-28T23:33:58.189Z,-1.77
2023-01-28T23:35:01.499Z,-1.71
2023-01-28T23:36:05.623Z,-1.83
2023-01-28T23:37:10.269Z,-1.89
2023-01-28T23:38:16.003Z,-1.87
2023-01-28T23:39:20.416Z,-1.86
2023-01-28T23:40:24.962Z,-1.80
2023-01-28T23:41:28.247Z,-1.82
2023-01-28T23:42:31.703Z,-1.82
2023-01-28T23:43:34.928Z,-1.86
2023-01-28T23:44:38.469Z,-1.84
2023-01-28T23:45:41.684Z,-1.94
2023-01-28T23:46:45.859Z,-2.01
2023-01-28T23:47:49.298Z,-1.94
2023-01-28T23:48:52.697Z,-1.94
2023-01-28T23:49:56.960Z,-1.93
2023-01-28T23:51:01.085Z,-1.91
2023-01-28T23:52:04.770Z,-1.97
2023-01-28T23:53:09.126Z,-1.93
2023-01-28T23:54:12.419Z,-1.89
2023-01-28T23:55:15.697Z,-1.89
2023-01-28T23:56:19.311Z,-1.88
2023-01-28T23:57:22.084Z,-1.81
2023-01-28T23:58:42.249Z,-1.79
2023-01-28T23:59:31.495Z,-1.78
